createdAt,value
2023-03-01T00:00:03.861Z,33.62
2023-03-01T00:00:35.256Z,33.80
2023-03-01T00:01:06.682Z,33.82
2023-03-01T00:01:38.076Z,33.78
2023-03-01T00:02:09.536Z,33.83
2023-03-01T00:02:41.005Z,34.03
2023-03-01T00:03:12.443Z,33.52
2023-03-01T00:03:43.887Z,33.64
2023-03-01T00:04:15.289Z,34.17
2023-03-01T00:04:46.698Z,33.60
2023-03-01T00:05:18.131Z,34.09
2023-03-01T00:05:49.536Z,33.83
2023-03-01T00:06:20.950Z,33.73
2023-03-01T00:06:52.350Z,33.93
2023-03-01T00:07:23.746Z,34.14
2023-03-01T00:07:55.144Z,33.90
2023-03-01T00:08:26.572Z,33.23
2023-03-01T00:08:57.968Z,33.66
2023-03-01T00:09:29.378Z,33.96
2023-03-01T00:10:00.775Z,33.51
2023-03-01T00:10:32.222Z,34.08
2023-03-01T00:11:03.642Z,33.79
2023-03-01T00:11:35.132Z,33.55
2023-03-01T00:12:06.536Z,33.77
2023-03-01T00:12:37.951Z,33.96
2023-03-01T00:13:09.377Z,33.63
2023-03-01T00:13:40.905Z,34.02
2023-03-01T00:14:12.319Z,33.64
2023-03-01T00:14:43.717Z,34.11
2023-03-01T00:15:15.132Z,33.94
2023-03-01T00:15:46.563Z,34.01
2023-03-01T00:16:18.042Z,33.73
2023-03-01T00:16:49.592Z,34.04
2023-03-01T00:17:21.011Z,33.76
2023-03-01T00:17:52.417Z,34.01
2023-03-01T00:18:23.838Z,34.10
2023-03-01T00:18:55.278Z,33.83
2023-03-01T00:19:26.678Z,34.02
2023-03-01T00:19:58.098Z,34.09
2023-03-01T00:20:29.494Z,33.79
2023-03-01T00:21:00.949Z,34.12
2023-03-01T00:21:32.366Z,33.74
2023-03-01T00:22:03.771Z,34.06
2023-03-01T00:22:35.173Z,34.06
2023-03-01T00:23:06.585Z,34.11
2023-03-01T00:23:37.985Z,33.76
2023-03-01T00:24:09.405Z,33.94
2023-03-01T00:24:40.816Z,33.95
2023-03-01T00:25:12.221Z,33.92
2023-03-01T00:25:43.634Z,33.78
2023-03-01T00:26:15.081Z,34.21
2023-03-01T00:26:46.484Z,33.80
2023-03-01T00:27:17.882Z,34.08
2023-03-01T00:27:49.381Z,33.96
2023-03-01T00:28:20.775Z,33.96
2023-03-01T00:28:52.229Z,34.11
2023-03-01T00:29:23.654Z,33.80
2023-03-01T00:29:55.047Z,34.01
2023-03-01T00:30:26.484Z,33.95
2023-03-01T00:30:57.972Z,33.96
2023-03-01T00:31:29.404Z,34.21
2023-03-01T00:32:00.865Z,33.99
2023-03-01T00:32:32.292Z,33.90
2023-03-01T00:33:03.706Z,33.99
2023-03-01T00:33:35.130Z,34.27
2023-03-01T00:34:06.535Z,33.93
2023-03-01T00:34:37.953Z,33.79
2023-03-01T00:35:09.344Z,33.78
2023-03-01T00:35:40.791Z,34.17
2023-03-01T00:36:12.201Z,34.21
2023-03-01T00:36:43.699Z,33.65
2023-03-01T00:37:15.100Z,33.93
2023-03-01T00:37:46.502Z,34.25
2023-03-01T00:38:17.901Z,33.63
2023-03-01T00:38:49.294Z,33.61
2023-03-01T00:39:20.717Z,33.99
2023-03-01T00:39:52.127Z,34.29
2023-03-01T00:40:23.519Z,33.99
2023-03-01T00:40:54.913Z,34.17
2023-03-01T00:41:26.343Z,34.00
2023-03-01T00:41:57.761Z,33.72
2023-03-01T00:42:29.180Z,34.11
2023-03-01T00:43:00.597Z,33.84
2023-03-01T00:43:32.006Z,33.87
2023-03-01T00:44:03.481Z,34.29
2023-03-01T00:44:34.879Z,33.92
2023-03-01T00:45:06.286Z,34.21
2023-03-01T00:45:37.680Z,33.88
2023-03-01T00:46:09.103Z,33.95
2023-03-01T00:46:40.631Z,34.03
2023-03-01T00:47:12.111Z,34.10
2023-03-01T00:47:43.521Z,34.22
2023-03-01T00:48:14.914Z,34.30
2023-03-01T00:48:46.319Z,34.15
2023-03-01T00:49:17.715Z,34.22
2023-03-01T00:49:49.139Z,34.34
2023-03-01T00:50:20.543Z,33.74
2023-03-01T00:50:51.979Z,34.09
2023-03-01T00:51:23.374Z,34.22
2023-03-01T00:51:54.836Z,33.87
2023-03-01T00:52:26.269Z,33.99
2023-03-01T00:52:57.667Z,34.04
2023-03-01T00:53:29.072Z,33.85
2023-03-01T00:54:00.478Z,33.98
2023-03-01T00:54:31.896Z,34.33
2023-03-01T00:55:03.295Z,34.18
2023-03-01T00:55:34.707Z,33.84
2023-03-01T00:56:06.104Z,34.30
2023-03-01T00:56:37.530Z,34.15
2023-03-01T00:57:08.982Z,34.09
2023-03-01T00:57:40.400Z,34.35
2023-03-01T00:58:11.786Z,34.25
2023-03-01T00:58:43.195Z,34.06
2023-03-01T00:59:14.598Z,34.30
2023-03-01T00:59:46.137Z,33.87
2023-03-01T01:00:17.534Z,34.02
2023-03-01T01:00:48.935Z,34.27
2023-03-01T01:01:20.399Z,34.40
2023-03-01T01:01:51.889Z,34.44
2023-03-01T01:02:23.363Z,34.15
2023-03-01T01:02:54.889Z,33.98
2023-03-01T01:03:26.364Z,34.00
2023-03-01T01:03:57.760Z,34.14
2023-03-01T01:04:29.169Z,33.93
2023-03-01T01:05:00.573Z,34.25
2023-03-01T01:05:31.967Z,33.90
2023-03-01T01:06:03.363Z,34.20
2023-03-01T01:06:34.791Z,33.93
2023-03-01T01:07:06.232Z,33.69
2023-03-01T01:07:37.645Z,33.88
2023-03-01T01:08:09.045Z,34.22
2023-03-01T01:08:40.445Z,33.79
2023-03-01T01:09:11.838Z,34.17
2023-03-01T01:09:43.242Z,34.29
2023-03-01T01:10:14.639Z,34.33
2023-03-01T01:10:46.047Z,33.92
2023-03-01T01:11:17.458Z,34.05
2023-03-01T01:11:48.887Z,34.30
2023-03-01T01:12:20.505Z,34.15
2023-03-01T01:12:51.912Z,33.97
2023-03-01T01:13:23.368Z,34.29
2023-03-01T01:13:54.795Z,34.20
2023-03-01T01:14:26.197Z,33.79
2023-03-01T01:14:57.615Z,34.05
2023-03-01T01:15:29.058Z,34.14
2023-03-01T01:16:00.535Z,34.22
2023-03-01T01:16:32.281Z,34.16
2023-03-01T01:17:03.858Z,33.88
2023-03-01T01:17:35.267Z,33.88
2023-03-01T01:18:06.692Z,33.82
2023-03-01T01:18:38.119Z,33.86
2023-03-01T01:19:09.514Z,33.95
2023-03-01T01:19:40.920Z,34.31
2023-03-01T01:20:12.331Z,34.08
2023-03-01T01:20:43.749Z,34.17
2023-03-01T01:21:15.175Z,34.16
2023-03-01T01:21:46.599Z,34.09
2023-03-01T01:22:18.014Z,34.17
2023-03-01T01:22:49.423Z,34.30
2023-03-01T01:23:20.818Z,33.81
2023-03-01T01:23:52.268Z,34.07
2023-03-01T01:24:23.715Z,34.39
2023-03-01T01:24:55.134Z,34.11
2023-03-01T01:25:26.551Z,34.37
2023-03-01T01:25:58.015Z,33.99
2023-03-01T01:26:29.710Z,34.39
2023-03-01T01:27:01.258Z,33.99
2023-03-01T01:27:32.662Z,34.31
2023-03-01T01:28:04.055Z,34.31
2023-03-01T01:28:35.481Z,34.16
2023-03-01T01:29:06.967Z,33.93
2023-03-01T01:29:38.365Z,34.26
2023-03-01T01:30:09.763Z,34.29
2023-03-01T01:30:41.185Z,34.20
2023-03-01T01:31:12.610Z,34.24
2023-03-01T01:31:44.089Z,34.03
2023-03-01T01:32:15.532Z,33.95
2023-03-01T01:32:46.943Z,34.01
2023-03-01T01:33:18.337Z,34.05
2023-03-01T01:33:49.751Z,34.28
2023-03-01T01:34:21.196Z,34.28
2023-03-01T01:34:52.604Z,34.17
2023-03-01T01:35:24.106Z,34.46
2023-03-01T01:35:55.548Z,34.09
2023-03-01T01:36:26.987Z,34.13
2023-03-01T01:36:58.387Z,34.22
2023-03-01T01:37:29.800Z,34.00
2023-03-01T01:38:01.192Z,34.22
2023-03-01T01:38:32.614Z,33.61
2023-03-01T01:39:04.034Z,33.94
2023-03-01T01:39:35.459Z,34.18
2023-03-01T01:40:06.910Z,33.72
2023-03-01T01:40:38.321Z,33.94
2023-03-01T01:41:09.729Z,34.46
2023-03-01T01:41:41.134Z,34.48
2023-03-01T01:42:12.528Z,33.78
2023-03-01T01:42:43.939Z,33.93
2023-03-01T01:43:15.352Z,34.20
2023-03-01T01:43:46.753Z,34.25
2023-03-01T01:44:18.174Z,34.13
2023-03-01T01:44:49.611Z,34.41
2023-03-01T01:45:21.015Z,33.99
2023-03-01T01:45:52.413Z,34.14
2023-03-01T01:46:23.865Z,34.20
2023-03-01T01:46:55.313Z,34.46
2023-03-01T01:47:26.737Z,34.27
2023-03-01T01:47:58.148Z,34.07
2023-03-01T01:48:29.571Z,34.58
2023-03-01T01:49:00.959Z,34.48
2023-03-01T01:49:32.350Z,34.22
2023-03-01T01:50:03.766Z,34.09
2023-03-01T01:50:35.170Z,34.08
2023-03-01T01:51:06.575Z,33.97
2023-03-01T01:51:37.977Z,34.21
2023-03-01T01:52:09.367Z,34.32
2023-03-01T01:52:40.759Z,34.24
2023-03-01T01:53:12.179Z,34.46
2023-03-01T01:53:43.599Z,33.93
2023-03-01T01:54:15.003Z,34.08
2023-03-01T01:54:46.414Z,34.48
2023-03-01T01:55:17.862Z,34.39
2023-03-01T01:55:49.282Z,34.38
2023-03-01T01:56:20.689Z,34.28
2023-03-01T01:56:52.105Z,34.25
2023-03-01T01:57:23.523Z,34.61
2023-03-01T01:57:54.919Z,34.49
2023-03-01T01:58:26.328Z,34.17
2023-03-01T01:58:57.725Z,34.35
2023-03-01T01:59:29.147Z,34.15
2023-03-01T02:00:00.539Z,34.18
2023-03-01T02:00:32.004Z,34.24
2023-03-01T02:01:03.414Z,34.25
2023-03-01T02:01:34.836Z,33.93
2023-03-01T02:02:06.258Z,34.17
2023-03-01T02:02:37.694Z,33.92
2023-03-01T02:03:09.207Z,34.09
2023-03-01T02:03:40.773Z,34.20
2023-03-01T02:04:12.218Z,34.51
2023-03-01T02:04:43.619Z,34.35
2023-03-01T02:05:15.019Z,34.29
2023-03-01T02:05:46.827Z,34.12
2023-03-01T02:06:18.612Z,34.29
2023-03-01T02:06:50.020Z,34.60
2023-03-01T02:07:21.417Z,33.77
2023-03-01T02:07:52.841Z,34.15
2023-03-01T02:08:24.256Z,34.13
2023-03-01T02:08:55.728Z,34.62
2023-03-01T02:09:27.139Z,34.28
2023-03-01T02:09:58.557Z,34.43
2023-03-01T02:10:30.009Z,34.12
2023-03-01T02:11:01.458Z,34.45
2023-03-01T02:11:32.875Z,34.52
2023-03-01T02:12:04.273Z,34.04
2023-03-01T02:12:35.672Z,33.92
2023-03-01T02:13:07.087Z,34.18
2023-03-01T02:13:38.496Z,34.47
2023-03-01T02:14:09.962Z,34.47
2023-03-01T02:14:41.360Z,34.23
2023-03-01T02:15:12.883Z,34.39
2023-03-01T02:15:44.312Z,34.45
2023-03-01T02:16:15.825Z,34.20
2023-03-01T02:16:47.252Z,34.01
2023-03-01T02:17:18.673Z,34.29
2023-03-01T02:17:50.075Z,34.36
2023-03-01T02:18:21.493Z,34.03
2023-03-01T02:18:52.954Z,34.33
2023-03-01T02:19:24.373Z,34.40
2023-03-01T02:19:55.774Z,34.30
2023-03-01T02:20:27.171Z,34.32
2023-03-01T02:20:58.580Z,34.63
2023-03-01T02:21:29.970Z,34.14
2023-03-01T02:22:01.372Z,34.40
2023-03-01T02:22:32.823Z,34.29
2023-03-01T02:23:04.225Z,34.09
2023-03-01T02:23:35.658Z,34.72
2023-03-01T02:24:07.115Z,34.09
2023-03-01T02:24:38.531Z,34.50
2023-03-01T02:25:09.946Z,34.40
2023-03-01T02:25:41.340Z,34.14
2023-03-01T02:26:12.760Z,34.45
2023-03-01T02:26:44.160Z,34.32
2023-03-01T02:27:15.562Z,34.42
2023-03-01T02:27:46.974Z,34.25
2023-03-01T02:28:18.373Z,34.15
2023-03-01T02:28:49.783Z,34.42
2023-03-01T02:29:21.193Z,34.13
2023-03-01T02:29:52.590Z,34.26
2023-03-01T02:30:23.993Z,34.65
2023-03-01T02:30:55.402Z,34.18
2023-03-01T02:31:26.913Z,34.53
2023-03-01T02:31:58.377Z,34.16
2023-03-01T02:32:29.808Z,34.13
2023-03-01T02:33:01.218Z,34.27
2023-03-01T02:33:32.637Z,34.42
2023-03-01T02:34:04.049Z,34.18
2023-03-01T02:34:35.472Z,34.53
2023-03-01T02:35:06.881Z,34.66
2023-03-01T02:35:38.338Z,33.90
2023-03-01T02:36:09.755Z,34.25
2023-03-01T02:36:41.175Z,34.87
2023-03-01T02:37:12.584Z,34.25
2023-03-01T02:37:43.980Z,34.65
2023-03-01T02:38:15.400Z,34.55
2023-03-01T02:38:46.795Z,34.60
2023-03-01T02:39:18.210Z,34.21
2023-03-01T02:39:49.607Z,34.87
2023-03-01T02:40:21.003Z,34.35
2023-03-01T02:40:52.421Z,34.34
2023-03-01T02:41:23.830Z,34.50
2023-03-01T02:41:55.238Z,34.29
2023-03-01T02:42:27.353Z,34.22
2023-03-01T02:42:58.875Z,34.08
2023-03-01T02:43:30.271Z,34.49
2023-03-01T02:44:01.669Z,34.08
2023-03-01T02:44:33.092Z,34.27
2023-03-01T02:45:04.507Z,34.18
2023-03-01T02:45:35.935Z,33.98
2023-03-01T02:46:07.377Z,34.62
2023-03-01T02:46:38.841Z,34.50
2023-03-01T02:47:10.280Z,34.31
2023-03-01T02:47:41.723Z,34.53
2023-03-01T02:48:13.111Z,34.05
2023-03-01T02:48:44.514Z,34.51
2023-03-01T02:49:15.935Z,34.13
2023-03-01T02:49:47.355Z,34.12
2023-03-01T02:50:18.751Z,34.69
2023-03-01T02:50:50.165Z,33.98
2023-03-01T02:51:21.580Z,34.36
2023-03-01T02:51:52.993Z,34.39
2023-03-01T02:52:24.385Z,34.58
2023-03-01T02:52:55.811Z,34.48
2023-03-01T02:53:27.205Z,34.64
2023-03-01T02:53:58.600Z,34.46
2023-03-01T02:54:30.019Z,34.40
2023-03-01T02:55:01.416Z,34.31
2023-03-01T02:55:32.821Z,34.70
2023-03-01T02:56:04.219Z,34.27
2023-03-01T02:56:35.617Z,34.04
2023-03-01T02:57:07.041Z,34.22
2023-03-01T02:57:38.460Z,34.22
2023-03-01T02:58:09.912Z,34.37
2023-03-01T02:58:41.323Z,34.62
2023-03-01T02:59:12.732Z,34.24
2023-03-01T02:59:44.155Z,34.55
2023-03-01T03:00:15.580Z,34.35
2023-03-01T03:00:47.056Z,34.22
2023-03-01T03:01:18.622Z,34.16
2023-03-01T03:01:50.071Z,34.50
2023-03-01T03:02:21.499Z,34.63
2023-03-01T03:02:52.933Z,34.52
2023-03-01T03:03:24.388Z,34.23
2023-03-01T03:03:55.864Z,34.02
2023-03-01T03:04:27.283Z,34.13
2023-03-01T03:04:58.696Z,34.10
2023-03-01T03:05:30.116Z,34.26
2023-03-01T03:06:01.534Z,34.64
2023-03-01T03:06:33.019Z,34.80
2023-03-01T03:07:04.528Z,34.60
2023-03-01T03:07:35.947Z,34.44
2023-03-01T03:08:07.347Z,34.19
2023-03-01T03:08:38.800Z,34.63
2023-03-01T03:09:10.227Z,34.08
2023-03-01T03:09:41.619Z,34.70
2023-03-01T03:10:13.197Z,34.38
2023-03-01T03:10:44.605Z,34.11
2023-03-01T03:11:16.045Z,34.18
2023-03-01T03:11:47.456Z,34.61
2023-03-01T03:12:18.879Z,34.61
2023-03-01T03:12:50.286Z,34.59
2023-03-01T03:13:21.683Z,34.17
2023-03-01T03:13:53.080Z,34.80
2023-03-01T03:14:24.474Z,34.55
2023-03-01T03:14:55.884Z,34.40
2023-03-01T03:15:27.308Z,34.21
2023-03-01T03:15:58.762Z,34.78
2023-03-01T03:16:30.573Z,34.54
2023-03-01T03:17:02.164Z,34.11
2023-03-01T03:17:33.576Z,34.47
2023-03-01T03:18:04.975Z,34.32
2023-03-01T03:18:36.367Z,34.38
2023-03-01T03:19:07.791Z,34.20
2023-03-01T03:19:39.178Z,34.19
2023-03-01T03:20:10.594Z,34.37
2023-03-01T03:20:42.039Z,34.39
2023-03-01T03:21:13.436Z,34.50
2023-03-01T03:21:44.833Z,34.61
2023-03-01T03:22:16.244Z,34.69
2023-03-01T03:22:47.642Z,34.43
2023-03-01T03:23:19.039Z,34.47
2023-03-01T03:23:50.434Z,33.97
2023-03-01T03:24:21.851Z,34.38
2023-03-01T03:24:53.253Z,34.40
2023-03-01T03:25:24.702Z,34.47
2023-03-01T03:25:56.095Z,34.41
2023-03-01T03:26:27.511Z,34.44
2023-03-01T03:26:58.923Z,34.15
2023-03-01T03:27:30.339Z,34.13
2023-03-01T03:28:01.735Z,34.40
2023-03-01T03:28:33.156Z,34.70
2023-03-01T03:29:04.554Z,34.58
2023-03-01T03:29:35.948Z,34.32
2023-03-01T03:30:07.362Z,34.43
2023-03-01T03:30:38.790Z,34.56
2023-03-01T03:31:10.257Z,34.23
2023-03-01T03:31:41.716Z,34.46
2023-03-01T03:32:13.228Z,34.50
2023-03-01T03:32:44.683Z,34.32
2023-03-01T03:33:16.095Z,34.13
2023-03-01T03:33:47.509Z,34.79
2023-03-01T03:34:19.076Z,34.43
2023-03-01T03:34:50.599Z,34.39
2023-03-01T03:35:22.003Z,34.42
2023-03-01T03:35:53.477Z,34.69
2023-03-01T03:36:24.903Z,34.33
2023-03-01T03:36:56.298Z,34.27
2023-03-01T03:37:27.697Z,34.32
2023-03-01T03:37:59.087Z,34.50
2023-03-01T03:38:30.490Z,34.74
2023-03-01T03:39:01.965Z,34.74
2023-03-01T03:39:33.358Z,34.42
2023-03-01T03:40:04.780Z,34.26
2023-03-01T03:40:36.203Z,34.52
2023-03-01T03:41:07.640Z,34.42
2023-03-01T03:41:39.031Z,34.13
2023-03-01T03:42:10.424Z,34.30
2023-03-01T03:42:41.832Z,34.48
2023-03-01T03:43:13.231Z,34.77
2023-03-01T03:43:44.624Z,34.11
2023-03-01T03:44:16.025Z,34.63
2023-03-01T03:44:47.419Z,34.61
2023-03-01T03:45:18.810Z,34.18
2023-03-01T03:45:50.256Z,34.62
2023-03-01T03:46:21.662Z,34.39
2023-03-01T03:46:53.076Z,34.42
2023-03-01T03:47:24.492Z,34.41
2023-03-01T03:47:55.887Z,34.68
2023-03-01T03:48:27.325Z,34.27
2023-03-01T03:48:58.766Z,34.44
2023-03-01T03:49:30.167Z,34.53
2023-03-01T03:50:01.569Z,34.69
2023-03-01T03:50:32.989Z,34.22
2023-03-01T03:51:04.429Z,34.80
2023-03-01T03:51:35.823Z,34.33
2023-03-01T03:52:07.230Z,34.23
2023-03-01T03:52:38.643Z,34.31
2023-03-01T03:53:10.054Z,34.72
2023-03-01T03:53:41.475Z,34.21
2023-03-01T03:54:12.918Z,34.45
2023-03-01T03:54:44.337Z,34.62
2023-03-01T03:55:15.731Z,34.33
2023-03-01T03:55:47.134Z,34.23
2023-03-01T03:56:18.571Z,34.61
2023-03-01T03:56:49.975Z,34.61
2023-03-01T03:57:21.378Z,34.52
2023-03-01T03:57:52.799Z,34.61
2023-03-01T03:58:24.211Z,34.72
2023-03-01T03:58:55.639Z,34.75
2023-03-01T03:59:27.033Z,34.67
2023-03-01T03:59:58.427Z,34.60
2023-03-01T04:00:29.874Z,34.36
2023-03-01T04:01:01.310Z,34.35
2023-03-01T04:01:32.779Z,34.67
2023-03-01T04:02:04.194Z,34.56
2023-03-01T04:02:35.624Z,34.23
2023-03-01T04:03:07.047Z,34.30
2023-03-01T04:03:38.452Z,34.61
2023-03-01T04:04:09.866Z,34.52
2023-03-01T04:04:41.273Z,34.55
2023-03-01T04:05:12.679Z,34.22
2023-03-01T04:05:44.090Z,34.48
2023-03-01T04:06:15.542Z,34.53
2023-03-01T04:06:46.941Z,34.62
2023-03-01T04:07:18.362Z,34.41
2023-03-01T04:07:49.764Z,34.72
2023-03-01T04:08:21.157Z,34.72
2023-03-01T04:08:52.562Z,34.65
2023-03-01T04:09:24.039Z,34.32
2023-03-01T04:09:55.438Z,34.75
2023-03-01T04:10:26.851Z,34.26
2023-03-01T04:10:58.238Z,34.74
2023-03-01T04:11:29.699Z,34.47
2023-03-01T04:12:01.114Z,34.52
2023-03-01T04:12:32.521Z,34.79
2023-03-01T04:13:03.935Z,34.51
2023-03-01T04:13:35.344Z,34.68
2023-03-01T04:14:06.742Z,34.36
2023-03-01T04:14:38.143Z,34.43
2023-03-01T04:15:09.530Z,34.56
2023-03-01T04:15:40.921Z,34.30
2023-03-01T04:16:12.329Z,34.51
2023-03-01T04:16:43.840Z,34.19
2023-03-01T04:17:15.299Z,34.41
2023-03-01T04:17:46.700Z,34.71
2023-03-01T04:18:18.120Z,34.77
2023-03-01T04:18:49.521Z,34.25
2023-03-01T04:19:20.979Z,34.62
2023-03-01T04:19:52.372Z,34.29
2023-03-01T04:20:23.799Z,34.73
2023-03-01T04:20:55.201Z,34.32
2023-03-01T04:21:26.599Z,34.45
2023-03-01T04:21:58.017Z,34.49
2023-03-01T04:22:29.444Z,34.50
2023-03-01T04:23:00.889Z,34.32
2023-03-01T04:23:32.298Z,34.66
2023-03-01T04:24:03.696Z,34.58
2023-03-01T04:24:35.086Z,34.16
2023-03-01T04:25:06.494Z,34.55
2023-03-01T04:25:37.915Z,34.25
2023-03-01T04:26:09.316Z,34.41
2023-03-01T04:26:40.748Z,34.43
2023-03-01T04:27:12.154Z,34.20
2023-03-01T04:27:43.543Z,34.30
2023-03-01T04:28:15.004Z,34.71
2023-03-01T04:28:46.454Z,34.62
2023-03-01T04:29:17.890Z,34.55
2023-03-01T04:29:49.296Z,34.51
2023-03-01T04:30:20.696Z,34.63
2023-03-01T04:30:52.099Z,34.89
2023-03-01T04:31:23.546Z,34.39
2023-03-01T04:31:55.061Z,34.55
2023-03-01T04:32:26.568Z,34.40
2023-03-01T04:32:57.975Z,34.65
2023-03-01T04:33:29.402Z,34.37
2023-03-01T04:34:00.813Z,34.74
2023-03-01T04:34:32.238Z,34.62
2023-03-01T04:35:03.643Z,34.52
2023-03-01T04:35:35.127Z,34.83
2023-03-01T04:36:06.654Z,34.32
2023-03-01T04:36:38.265Z,34.42
2023-03-01T04:37:09.728Z,34.66
2023-03-01T04:37:41.124Z,34.31
2023-03-01T04:38:12.531Z,34.90
2023-03-01T04:38:43.972Z,34.59
2023-03-01T04:39:15.371Z,34.36
2023-03-01T04:39:46.773Z,34.95
2023-03-01T04:40:18.177Z,34.59
2023-03-01T04:40:49.594Z,34.84
2023-03-01T04:41:21.037Z,34.82
2023-03-01T04:41:52.444Z,34.48
2023-03-01T04:42:23.848Z,34.66
2023-03-01T04:42:55.252Z,34.25
2023-03-01T04:43:26.647Z,34.39
2023-03-01T04:43:58.079Z,34.63
2023-03-01T04:44:29.483Z,34.32
2023-03-01T04:45:00.878Z,34.78
2023-03-01T04:45:32.327Z,34.26
2023-03-01T04:46:03.954Z,34.25
2023-03-01T04:46:35.426Z,34.42
2023-03-01T04:47:06.838Z,34.66
2023-03-01T04:47:38.253Z,34.73
2023-03-01T04:48:09.672Z,34.46
2023-03-01T04:48:41.087Z,34.69
2023-03-01T04:49:12.509Z,34.31
2023-03-01T04:49:43.926Z,34.59
2023-03-01T04:50:15.348Z,34.89
2023-03-01T04:50:46.753Z,34.41
2023-03-01T04:51:18.148Z,34.45
2023-03-01T04:51:49.567Z,34.59
2023-03-01T04:52:20.955Z,34.81
2023-03-01T04:52:52.351Z,34.46
2023-03-01T04:53:23.747Z,34.28
2023-03-01T04:53:55.181Z,34.32
2023-03-01T04:54:26.601Z,34.81
2023-03-01T04:54:57.996Z,34.28
2023-03-01T04:55:29.418Z,34.55
2023-03-01T04:56:00.836Z,34.27
2023-03-01T04:56:32.544Z,34.26
2023-03-01T04:57:04.180Z,34.93
2023-03-01T04:57:35.603Z,34.37
2023-03-01T04:58:07.078Z,34.44
2023-03-01T04:58:38.495Z,34.51
2023-03-01T04:59:09.919Z,34.66
2023-03-01T04:59:41.315Z,34.78
2023-03-01T05:00:12.728Z,34.35
2023-03-01T05:00:44.137Z,34.42
2023-03-01T05:01:15.530Z,34.53
2023-03-01T05:01:46.925Z,34.78
2023-03-01T05:02:18.334Z,34.50
2023-03-01T05:02:49.743Z,34.78
2023-03-01T05:03:21.192Z,34.44
2023-03-01T05:03:52.629Z,34.42
2023-03-01T05:04:24.171Z,34.25
2023-03-01T05:04:55.635Z,34.32
2023-03-01T05:05:27.053Z,34.57
2023-03-01T05:05:58.457Z,34.89
2023-03-01T05:06:30.118Z,34.52
2023-03-01T05:07:01.674Z,34.84
2023-03-01T05:07:33.070Z,34.63
2023-03-01T05:08:04.474Z,35.08
2023-03-01T05:08:35.935Z,34.27
2023-03-01T05:09:07.374Z,34.44
2023-03-01T05:09:38.779Z,34.63
2023-03-01T05:10:10.181Z,34.79
2023-03-01T05:10:41.593Z,34.62
2023-03-01T05:11:12.996Z,34.54
2023-03-01T05:11:44.411Z,34.88
2023-03-01T05:12:15.835Z,34.56
2023-03-01T05:12:47.238Z,34.94
2023-03-01T05:13:18.660Z,34.53
2023-03-01T05:13:50.111Z,34.57
2023-03-01T05:14:21.524Z,34.38
2023-03-01T05:14:52.931Z,34.61
2023-03-01T05:15:24.359Z,34.34
2023-03-01T05:15:55.826Z,34.64
2023-03-01T05:16:27.251Z,35.03
2023-03-01T05:16:58.656Z,34.78
2023-03-01T05:17:30.072Z,34.82
2023-03-01T05:18:01.469Z,34.97
2023-03-01T05:18:32.866Z,34.28
2023-03-01T05:19:04.288Z,34.49
2023-03-01T05:19:35.697Z,34.59
2023-03-01T05:20:07.101Z,34.67
2023-03-01T05:20:38.524Z,34.77
2023-03-01T05:21:09.918Z,35.00
2023-03-01T05:21:41.346Z,34.46
2023-03-01T05:22:12.750Z,34.53
2023-03-01T05:22:44.162Z,34.74
2023-03-01T05:23:15.561Z,34.69
2023-03-01T05:23:46.963Z,34.83
2023-03-01T05:24:18.388Z,34.70
2023-03-01T05:24:49.808Z,34.58
2023-03-01T05:25:21.223Z,34.51
2023-03-01T05:25:52.639Z,34.93
2023-03-01T05:26:39.440Z,34.70
2023-03-01T05:27:10.888Z,34.64
2023-03-01T05:27:42.305Z,34.81
2023-03-01T05:28:13.766Z,34.80
2023-03-01T05:28:45.207Z,34.54
2023-03-01T05:29:16.606Z,34.62
2023-03-01T05:29:48.000Z,34.69
2023-03-01T05:30:19.400Z,34.50
2023-03-01T05:30:50.851Z,34.42
2023-03-01T05:31:22.327Z,34.42
2023-03-01T05:31:53.757Z,34.89
2023-03-01T05:32:25.239Z,34.92
2023-03-01T05:32:56.965Z,34.47
2023-03-01T05:33:28.467Z,34.57
2023-03-01T05:33:59.887Z,34.56
2023-03-01T05:34:31.318Z,34.39
2023-03-01T05:35:02.745Z,34.83
2023-03-01T05:35:34.175Z,34.49
2023-03-01T05:36:05.599Z,34.41
2023-03-01T05:36:37.009Z,34.67
2023-03-01T05:37:08.415Z,34.76
2023-03-01T05:37:39.815Z,34.81
2023-03-01T05:38:11.212Z,34.94
2023-03-01T05:38:42.630Z,34.70
2023-03-01T05:39:14.048Z,34.62
2023-03-01T05:39:45.475Z,34.72
2023-03-01T05:40:16.923Z,34.43
2023-03-01T05:40:48.325Z,34.86
2023-03-01T05:41:19.749Z,34.97
2023-03-01T05:41:51.147Z,34.39
2023-03-01T05:42:22.543Z,34.93
2023-03-01T05:42:53.953Z,34.32
2023-03-01T05:43:25.353Z,34.65
2023-03-01T05:43:56.757Z,34.69
2023-03-01T05:44:28.148Z,34.59
2023-03-01T05:44:59.581Z,34.97
2023-03-01T05:45:31.031Z,34.84
2023-03-01T05:46:02.545Z,34.59
2023-03-01T05:46:34.040Z,34.54
2023-03-01T05:47:05.450Z,34.53
2023-03-01T05:47:36.869Z,34.82
2023-03-01T05:48:08.262Z,34.78
2023-03-01T05:48:39.657Z,34.88
2023-03-01T05:49:11.055Z,34.68
2023-03-01T05:49:42.466Z,34.48
2023-03-01T05:50:13.900Z,34.99
2023-03-01T05:50:45.350Z,34.77
2023-03-01T05:51:16.747Z,34.85
2023-03-01T05:51:48.164Z,34.68
2023-03-01T05:52:19.560Z,34.65
2023-03-01T05:52:50.992Z,34.54
2023-03-01T05:53:22.408Z,34.62
2023-03-01T05:53:53.824Z,34.79
2023-03-01T05:54:25.237Z,34.86
2023-03-01T05:54:56.637Z,34.85
2023-03-01T05:55:29.134Z,35.07
2023-03-01T05:56:00.653Z,34.75
2023-03-01T05:56:32.356Z,34.95
2023-03-01T05:57:03.923Z,35.05
2023-03-01T05:57:35.333Z,34.46
2023-03-01T05:58:06.756Z,34.80
2023-03-01T05:58:38.162Z,34.91
2023-03-01T05:59:09.556Z,34.55
2023-03-01T05:59:40.952Z,34.65
2023-03-01T06:00:12.363Z,34.72
2023-03-01T06:00:43.789Z,35.02
2023-03-01T06:01:15.237Z,34.90
2023-03-01T06:01:46.629Z,34.45
2023-03-01T06:02:18.031Z,34.62
2023-03-01T06:02:49.448Z,34.69
2023-03-01T06:03:20.846Z,34.79
2023-03-01T06:03:52.238Z,35.26
2023-03-01T06:04:23.693Z,34.57
2023-03-01T06:04:55.337Z,34.57
2023-03-01T06:05:26.824Z,34.54
2023-03-01T06:05:58.275Z,34.74
2023-03-01T06:06:29.744Z,34.74
2023-03-01T06:07:01.134Z,34.50
2023-03-01T06:07:32.528Z,34.82
2023-03-01T06:08:03.946Z,34.85
2023-03-01T06:08:35.370Z,34.62
2023-03-01T06:09:06.769Z,34.71
2023-03-01T06:09:38.163Z,34.36
2023-03-01T06:10:09.557Z,34.72
2023-03-01T06:10:40.973Z,34.42
2023-03-01T06:11:12.432Z,34.67
2023-03-01T06:11:43.836Z,34.55
2023-03-01T06:12:15.255Z,34.48
2023-03-01T06:12:46.666Z,34.72
2023-03-01T06:13:18.088Z,34.62
2023-03-01T06:13:49.521Z,34.55
2023-03-01T06:14:20.923Z,34.71
2023-03-01T06:14:52.336Z,34.62
2023-03-01T06:15:23.720Z,34.93
2023-03-01T06:15:55.152Z,34.50
2023-03-01T06:16:26.578Z,34.45
2023-03-01T06:16:57.965Z,34.47
2023-03-01T06:17:32.123Z,34.92
2023-03-01T06:18:03.590Z,34.72
2023-03-01T06:18:34.979Z,34.75
2023-03-01T06:19:06.382Z,34.49
2023-03-01T06:19:37.802Z,34.59
2023-03-01T06:20:09.220Z,34.72
2023-03-01T06:20:40.624Z,34.82
2023-03-01T06:21:12.039Z,34.67
2023-03-01T06:21:43.473Z,34.80
2023-03-01T06:22:14.876Z,34.83
2023-03-01T06:22:46.288Z,34.55
2023-03-01T06:23:17.687Z,35.02
2023-03-01T06:23:49.111Z,35.09
2023-03-01T06:24:20.503Z,35.06
2023-03-01T06:24:51.933Z,34.80
2023-03-01T06:25:23.366Z,34.87
2023-03-01T06:25:54.786Z,35.25
2023-03-01T06:26:26.194Z,35.10
2023-03-01T06:26:57.627Z,35.15
2023-03-01T06:27:29.062Z,35.24
2023-03-01T06:28:00.455Z,35.32
2023-03-01T06:28:31.865Z,35.16
2023-03-01T06:29:03.275Z,35.47
2023-03-01T06:29:35.167Z,34.88
2023-03-01T06:30:06.645Z,35.58
2023-03-01T06:30:38.069Z,35.41
2023-03-01T06:31:09.515Z,35.69
2023-03-01T06:31:40.962Z,35.30
2023-03-01T06:32:12.467Z,35.53
2023-03-01T06:32:43.909Z,35.16
2023-03-01T06:33:15.335Z,35.22
2023-03-01T06:33:47.961Z,35.22
2023-03-01T06:34:20.025Z,35.40
2023-03-01T06:34:51.944Z,35.36
2023-03-01T06:35:23.873Z,36.02
2023-03-01T06:35:55.387Z,35.14
2023-03-01T06:36:27.237Z,35.39
2023-03-01T06:36:59.117Z,35.50
2023-03-01T06:37:30.961Z,35.13
2023-03-01T06:38:02.457Z,35.17
2023-03-01T06:38:33.846Z,35.10
2023-03-01T06:39:05.250Z,35.17
2023-03-01T06:39:36.664Z,35.18
2023-03-01T06:40:08.086Z,35.18
2023-03-01T06:40:39.504Z,35.59
2023-03-01T06:41:10.930Z,35.31
2023-03-01T06:41:42.346Z,35.33
2023-03-01T06:42:13.758Z,35.57
2023-03-01T06:42:45.185Z,35.29
2023-03-01T06:43:16.591Z,35.31
2023-03-01T06:43:47.998Z,35.37
2023-03-01T06:44:19.399Z,35.09
2023-03-01T06:44:50.824Z,34.97